createdAt,value
2022-09-02T00:02:06.099Z,56.60
2022-09-02T00:04:35.206Z,56.79
2022-09-02T00:07:02.804Z,56.66
2022-09-02T00:09:30.385Z,56.07
2022-09-02T00:11:58.153Z,56.73
2022-09-02T00:14:35.661Z,57.98
2022-09-02T00:17:04.351Z,58.64
2022-09-02T00:19:32.687Z,57.77
2022-09-02T00:22:03.331Z,57.38
2022-09-02T00:24:31.673Z,57.56
2022-09-02T00:26:59.257Z,56.46
2022-09-02T00:29:27.486Z,58.17
2022-09-02T00:31:55.388Z,58.14
2022-09-02T00:34:23.253Z,57.58
2022-09-02T00:36:50.941Z,56.98
2022-09-02T00:39:19.914Z,56.14
2022-09-02T00:41:47.561Z,56.40
2022-09-02T00:44:18.265Z,56.62
2022-09-02T00:46:46.552Z,57.48
2022-09-02T00:49:18.636Z,57.56
2022-09-02T00:51:52.365Z,58.23
2022-09-02T00:54:23.823Z,57.16
2022-09-02T00:56:53.862Z,56.92
2022-09-02T00:59:28.575Z,58.43
2022-09-02T01:01:56.411Z,58.06
2022-09-02T01:04:24.156Z,58.07
2022-09-02T01:06:52.274Z,57.92
2022-09-02T01:09:21.280Z,59.30
2022-09-02T01:11:55.207Z,57.18
2022-09-02T01:14:24.144Z,58.50
2022-09-02T01:16:59.944Z,58.64
2022-09-02T01:19:30.797Z,58.14
2022-09-02T01:21:59.926Z,58.50
2022-09-02T01:24:31.061Z,57.18
2022-09-02T01:27:00.369Z,57.16
2022-09-02T01:29:29.382Z,57.20
2022-09-02T01:31:57.418Z,58.42
2022-09-02T01:34:25.194Z,57.93
2022-09-02T01:36:53.175Z,58.14
2022-09-02T01:39:22.042Z,58.61
2022-09-02T01:41:49.603Z,58.77
2022-09-02T01:44:17.833Z,57.87
2022-09-02T01:46:46.386Z,57.92
2022-09-02T01:49:14.174Z,58.78
2022-09-02T01:51:42.038Z,57.55
2022-09-02T01:54:09.856Z,56.90
2022-09-02T01:56:39.111Z,56.97
2022-09-02T01:59:07.830Z,58.34
2022-09-02T02:01:35.733Z,58.93
2022-09-02T02:04:04.175Z,58.77
2022-09-02T02:06:32.033Z,57.45
2022-09-02T02:08:59.628Z,57.57
2022-09-02T02:11:27.467Z,57.31
2022-09-02T02:13:56.389Z,57.01
2022-09-02T02:16:24.085Z,57.87
2022-09-02T02:18:51.687Z,59.25
2022-09-02T02:21:19.235Z,61.06
2022-09-02T02:23:48.536Z,59.79
2022-09-02T02:26:16.357Z,60.74
2022-09-02T02:28:44.120Z,57.93
2022-09-02T02:31:13.321Z,57.93
2022-09-02T02:33:40.917Z,58.58
2022-09-02T02:36:09.897Z,60.22
2022-09-02T02:38:39.151Z,58.19
2022-09-02T02:41:07.394Z,57.63
2022-09-02T02:43:35.866Z,59.51
2022-09-02T02:46:04.315Z,59.32
2022-09-02T02:48:33.829Z,59.57
2022-09-02T02:51:01.442Z,57.99
2022-09-02T02:53:31.226Z,57.79
2022-09-02T02:55:59.374Z,57.56
2022-09-02T02:58:27.171Z,57.73
2022-09-02T03:00:54.832Z,58.90
2022-09-02T03:03:22.628Z,58.07
2022-09-02T03:05:52.553Z,58.50
2022-09-02T03:08:21.960Z,57.59
2022-09-02T03:10:54.447Z,58.39
2022-09-02T03:13:24.871Z,58.04
2022-09-02T03:15:52.889Z,57.63
2022-09-02T03:18:20.780Z,57.76
2022-09-02T03:20:48.319Z,57.86
2022-09-02T03:23:18.882Z,59.54
2022-09-02T03:25:47.295Z,58.26
2022-09-02T03:28:15.407Z,58.16
2022-09-02T03:30:43.483Z,58.38
2022-09-02T03:33:11.126Z,58.12
2022-09-02T03:35:41.468Z,59.56
2022-09-02T03:38:09.924Z,61.40
2022-09-02T03:40:40.125Z,59.93
2022-09-02T03:43:07.838Z,58.68
2022-09-02T03:45:35.673Z,59.22
2022-09-02T03:48:04.553Z,58.72
2022-09-02T03:50:36.441Z,62.21
2022-09-02T03:53:04.584Z,59.21
2022-09-02T03:55:32.232Z,59.78
2022-09-02T03:58:03.434Z,62.80
2022-09-02T04:00:34.146Z,61.14
2022-09-02T04:03:03.693Z,59.43
2022-09-02T04:05:32.045Z,61.85
2022-09-02T04:08:00.596Z,60.33
2022-09-02T04:10:28.267Z,61.43
2022-09-02T04:12:55.941Z,61.49
2022-09-02T04:15:25.211Z,59.67
2022-09-02T04:17:52.777Z,59.72
2022-09-02T04:20:20.486Z,60.11
2022-09-02T04:22:48.061Z,59.52
2022-09-02T04:25:15.648Z,59.39
2022-09-02T04:27:43.279Z,61.40
2022-09-02T04:30:11.740Z,59.37
2022-09-02T04:32:41.127Z,58.78
2022-09-02T04:35:09.007Z,59.10
2022-09-02T04:37:36.594Z,61.39
2022-09-02T04:40:05.351Z,60.47
2022-09-02T04:42:32.988Z,59.92
2022-09-02T04:45:00.782Z,61.18
2022-09-02T04:47:28.933Z,59.59
2022-09-02T04:49:58.450Z,59.86
2022-09-02T04:52:26.485Z,59.94
2022-09-02T04:54:54.075Z,59.96
2022-09-02T04:57:21.646Z,60.50
2022-09-02T04:59:49.821Z,60.52
2022-09-02T05:02:18.315Z,60.15
2022-09-02T05:04:46.207Z,60.98
2022-09-02T05:07:16.062Z,62.30
2022-09-02T05:09:44.168Z,60.69
2022-09-02T05:12:11.860Z,62.43
2022-09-02T05:14:39.628Z,60.88
2022-09-02T05:17:07.988Z,59.94
2022-09-02T05:19:35.778Z,59.65
2022-09-02T05:22:05.015Z,59.82
2022-09-02T05:24:34.162Z,60.63
2022-09-02T05:27:01.788Z,59.86
2022-09-02T05:29:29.593Z,61.45
2022-09-02T05:31:57.506Z,60.87
2022-09-02T05:34:25.261Z,60.59
2022-09-02T05:36:53.854Z,60.34
2022-09-02T05:39:21.681Z,60.05
2022-09-02T05:41:50.623Z,60.44
2022-09-02T05:44:18.247Z,59.58
2022-09-02T05:46:48.933Z,60.00
2022-09-02T05:49:18.299Z,60.47
2022-09-02T05:51:48.428Z,61.24
2022-09-02T05:54:18.773Z,62.63
2022-09-02T05:56:52.667Z,60.98
2022-09-02T05:59:21.245Z,61.33
2022-09-02T06:01:49.468Z,60.00
2022-09-02T06:04:17.298Z,60.08
2022-09-02T06:06:44.998Z,59.53
2022-09-02T06:09:14.521Z,62.21
2022-09-02T06:11:44.670Z,60.01
2022-09-02T06:14:15.055Z,59.25
2022-09-02T06:16:43.574Z,59.74
2022-09-02T06:19:11.272Z,60.08
2022-09-02T06:21:39.982Z,60.16
2022-09-02T06:24:08.728Z,59.73
2022-09-02T06:26:37.581Z,59.29
2022-09-02T06:29:06.624Z,58.88
2022-09-02T06:31:36.194Z,58.71
2022-09-02T06:34:04.799Z,58.73
2022-09-02T06:36:33.107Z,58.47
2022-09-02T06:39:01.891Z,58.23
2022-09-02T06:41:33.468Z,58.11
2022-09-02T06:44:03.535Z,58.22
2022-09-02T06:46:38.490Z,58.31
2022-09-02T06:49:07.827Z,57.81
2022-09-02T06:51:38.374Z,57.52
2022-09-02T06:54:07.211Z,57.19
2022-09-02T06:56:35.657Z,57.13
2022-09-02T06:59:04.196Z,56.72
2022-09-02T07:01:33.328Z,56.47
2022-09-02T07:04:16.399Z,56.48
2022-09-02T07:06:46.221Z,56.37
2022-09-02T07:09:16.482Z,56.23
2022-09-02T07:11:47.762Z,55.70
2022-09-02T07:14:16.029Z,55.72
2022-09-02T07:16:46.548Z,55.46
2022-09-02T07:19:20.494Z,55.10
2022-09-02T07:21:49.437Z,55.41
2022-09-02T07:24:18.467Z,54.09
2022-09-02T07:26:46.665Z,53.86
2022-09-02T07:29:14.701Z,54.14
2022-09-02T07:31:44.428Z,53.30
2022-09-02T07:34:14.990Z,53.24
2022-09-02T07:36:45.795Z,53.17
2022-09-02T07:39:14.895Z,52.73
2022-09-02T07:41:44.992Z,51.27
2022-09-02T07:44:13.597Z,51.30
2022-09-02T07:46:42.200Z,49.59
2022-09-02T07:49:15.595Z,49.33
2022-09-02T07:51:49.279Z,48.50
2022-09-02T07:54:19.159Z,48.46
2022-09-02T07:56:47.127Z,47.93
2022-09-02T07:59:14.713Z,47.16
2022-09-02T08:04:18.701Z,45.37
2022-09-02T08:06:47.696Z,45.00
2022-09-02T08:09:15.325Z,43.63
2022-09-02T08:11:46.521Z,42.14
2022-09-02T08:14:18.149Z,41.38
2022-09-02T08:16:46.801Z,41.95
2022-09-02T08:19:16.209Z,40.21
2022-09-02T08:21:43.812Z,38.91
2022-09-02T08:24:13.151Z,38.14
2022-09-02T08:26:40.838Z,37.08
2022-09-02T08:29:09.949Z,36.66
2022-09-02T08:31:38.190Z,36.18
2022-09-02T08:34:06.535Z,34.87
2022-09-02T08:36:34.259Z,34.75
2022-09-02T08:39:03.560Z,33.80
2022-09-02T08:41:40.102Z,32.57
2022-09-02T08:44:08.602Z,32.17
2022-09-02T08:46:36.724Z,31.97
2022-09-02T08:49:10.079Z,30.93
2022-09-02T08:51:42.810Z,30.83
2022-09-02T08:54:21.232Z,29.86
2022-09-02T08:56:51.826Z,30.07
2022-09-02T08:59:22.547Z,30.03
2022-09-02T09:01:57.772Z,28.53
2022-09-02T09:04:44.493Z,28.38
2022-09-02T09:07:25.607Z,27.25
2022-09-02T09:10:03.957Z,27.03
2022-09-02T09:12:49.464Z,27.03
2022-09-02T09:15:23.379Z,25.85
2022-09-02T09:17:58.163Z,24.84
2022-09-02T09:20:28.235Z,24.66
2022-09-02T09:22:57.932Z,24.12
2022-09-02T09:25:30.087Z,24.62
2022-09-02T09:27:59.647Z,23.51
2022-09-02T09:30:27.639Z,23.76
2022-09-02T09:32:57.447Z,23.21
2022-09-02T09:35:26.548Z,22.92
2022-09-02T09:37:55.230Z,22.56
2022-09-02T09:40:33.519Z,22.08
2022-09-02T09:43:15.956Z,22.41
2022-09-02T09:45:45.684Z,22.23
2022-09-02T09:48:24.003Z,22.78
2022-09-02T09:51:17.081Z,22.34
2022-09-02T09:53:45.289Z,22.80
2022-09-02T09:56:38.457Z,22.73
2022-09-02T09:59:31.630Z,22.70
2022-09-02T10:02:01.690Z,24.22
2022-09-02T10:04:49.764Z,23.92
2022-09-02T10:07:38.581Z,22.97
2022-09-02T10:10:18.386Z,23.79
2022-09-02T10:12:49.205Z,24.82
2022-09-02T10:15:30.150Z,25.43
2022-09-02T10:18:07.828Z,26.10
2022-09-02T10:21:04.844Z,26.31
2022-09-02T10:23:47.207Z,26.24
2022-09-02T10:26:27.383Z,25.22
2022-09-02T10:29:09.822Z,25.81
2022-09-02T10:31:46.472Z,25.26
2022-09-02T10:34:22.276Z,25.73
2022-09-02T10:37:11.143Z,25.29
2022-09-02T10:39:59.677Z,26.13
2022-09-02T10:42:36.227Z,26.77
2022-09-02T10:45:14.639Z,26.89
2022-09-02T10:47:47.615Z,27.68
2022-09-02T10:50:23.411Z,26.90
2022-09-02T10:53:03.747Z,26.61
2022-09-02T10:55:41.859Z,27.26
2022-09-02T10:58:18.181Z,28.14
2022-09-02T11:00:52.481Z,27.66
2022-09-02T11:03:29.306Z,27.71
2022-09-02T11:06:06.993Z,26.74
2022-09-02T11:08:41.530Z,27.42
2022-09-02T11:11:16.190Z,27.17
2022-09-02T11:13:58.871Z,27.82
2022-09-02T11:16:34.412Z,27.57
2022-09-02T11:19:14.110Z,27.19
2022-09-02T11:21:52.449Z,27.51
2022-09-02T11:24:28.474Z,28.15
2022-09-02T11:27:20.214Z,27.80
2022-09-02T11:30:03.661Z,27.64
2022-09-02T11:32:41.001Z,27.91
2022-09-02T11:35:16.534Z,28.14
2022-09-02T11:37:51.338Z,28.01
2022-09-02T11:40:36.795Z,27.85
2022-09-02T11:43:24.414Z,27.73
2022-09-02T11:46:15.306Z,28.07
2022-09-02T11:49:06.900Z,28.81
2022-09-02T11:52:02.005Z,28.89
2022-09-02T11:54:36.714Z,28.51
2022-09-02T11:57:07.254Z,28.73
2022-09-02T12:00:21.269Z,28.69
2022-09-02T12:02:53.400Z,29.24
2022-09-02T12:05:42.685Z,29.82
2022-09-02T12:08:15.587Z,29.29
2022-09-02T12:11:02.509Z,30.60
2022-09-02T12:13:37.318Z,29.34
2022-09-02T12:16:39.017Z,29.88
2022-09-02T12:19:30.507Z,30.06
2022-09-02T12:22:29.462Z,29.55
2022-09-02T12:25:00.264Z,30.06
2022-09-02T12:27:31.556Z,29.79
2022-09-02T12:30:00.653Z,29.91
2022-09-02T12:33:12.753Z,29.56
2022-09-02T12:35:57.787Z,30.26
2022-09-02T12:38:31.966Z,30.54
2022-09-02T12:41:30.471Z,30.12
2022-09-02T12:44:23.918Z,30.04
2022-09-02T12:47:02.753Z,30.65
2022-09-02T12:49:50.609Z,30.49
2022-09-02T12:52:42.798Z,31.04
2022-09-02T12:55:17.887Z,31.00
2022-09-02T12:57:51.894Z,30.73
2022-09-02T13:00:31.705Z,30.69
2022-09-02T13:03:13.382Z,30.53
2022-09-02T13:05:55.347Z,31.63
2022-09-02T13:08:56.595Z,30.90
2022-09-02T13:12:02.012Z,30.53
2022-09-02T13:15:08.797Z,30.56
2022-09-02T13:17:56.251Z,30.40
2022-09-02T13:21:02.590Z,30.61
2022-09-02T13:24:16.020Z,30.42
2022-09-02T13:27:11.581Z,31.24
2022-09-02T13:30:20.880Z,30.83
2022-09-02T13:33:02.015Z,30.49
2022-09-02T13:35:31.713Z,31.22
2022-09-02T13:38:03.176Z,31.24
2022-09-02T13:40:34.277Z,30.94
2022-09-02T13:43:06.631Z,30.43
2022-09-02T13:45:36.731Z,30.75
2022-09-02T13:48:10.821Z,30.75
2022-09-02T13:50:44.155Z,30.77
2022-09-02T13:53:45.549Z,30.90
2022-09-02T13:56:12.076Z,30.16
2022-09-02T13:58:47.285Z,30.38
2022-09-02T14:01:22.460Z,30.86
2022-09-02T14:03:54.745Z,30.27
2022-09-02T14:06:27.045Z,30.94
2022-09-02T14:09:00.041Z,31.25
2022-09-02T14:11:30.266Z,31.07
2022-09-02T14:13:59.169Z,31.23
2022-09-02T14:16:33.630Z,30.97
2022-09-02T14:19:11.739Z,31.21
2022-09-02T14:21:47.803Z,30.41
2022-09-02T14:24:18.195Z,30.67
2022-09-02T14:26:49.518Z,30.33
2022-09-02T14:29:20.652Z,31.09
2022-09-02T14:32:03.882Z,30.91
2022-09-02T14:34:39.738Z,30.82
2022-09-02T14:37:23.306Z,30.93
2022-09-02T14:40:12.256Z,31.42
2022-09-02T14:42:48.731Z,31.36
2022-09-02T14:45:27.597Z,31.90
2022-09-02T14:47:57.835Z,31.63
2022-09-02T14:50:30.518Z,30.67
2022-09-02T14:53:04.930Z,30.77
2022-09-02T14:55:48.856Z,31.38
2022-09-02T14:58:19.229Z,31.29
2022-09-02T15:00:55.766Z,31.17
2022-09-02T15:03:24.349Z,31.72
2022-09-02T15:05:54.203Z,31.44
2022-09-02T15:08:22.777Z,32.15
2022-09-02T15:10:51.027Z,32.66
2022-09-02T15:13:27.109Z,32.11
2022-09-02T15:16:03.486Z,31.65
2022-09-02T15:18:32.069Z,31.74
2022-09-02T15:21:10.983Z,31.70
2022-09-02T15:23:41.101Z,32.02
2022-09-02T15:26:09.690Z,32.07
2022-09-02T15:28:38.658Z,31.78
2022-09-02T15:31:06.649Z,32.14
2022-09-02T15:33:34.852Z,31.97
2022-09-02T15:36:21.411Z,32.11
2022-09-02T15:38:49.385Z,32.33
2022-09-02T15:41:19.800Z,32.31
2022-09-02T15:43:49.011Z,32.18
2022-09-02T15:46:24.748Z,32.71
2022-09-02T15:48:53.317Z,32.69
2022-09-02T15:51:24.714Z,32.28
2022-09-02T15:53:56.820Z,32.73
2022-09-02T15:56:27.001Z,33.33
2022-09-02T15:58:59.127Z,32.73
2022-09-02T16:01:28.449Z,33.11
2022-09-02T16:04:04.123Z,32.77
2022-09-02T16:06:41.786Z,32.84
2022-09-02T16:09:23.196Z,33.40
2022-09-02T16:12:00.938Z,33.26
2022-09-02T16:14:38.519Z,33.41
2022-09-02T16:17:12.291Z,33.49
2022-09-02T16:19:47.806Z,33.68
2022-09-02T16:22:29.523Z,33.79
2022-09-02T16:25:14.822Z,33.34
2022-09-02T16:27:58.456Z,33.43
2022-09-02T16:30:31.035Z,33.47
2022-09-02T16:33:04.690Z,34.02
2022-09-02T16:35:41.127Z,33.58
2022-09-02T16:38:19.991Z,34.18
2022-09-02T16:43:56.645Z,34.40
2022-09-02T16:46:25.590Z,34.49
2022-09-02T16:48:56.760Z,34.56
2022-09-02T16:54:21.181Z,34.51
2022-09-02T16:56:52.743Z,34.90
2022-09-02T16:59:20.274Z,35.30
2022-09-02T17:01:47.854Z,35.24
2022-09-02T17:04:15.446Z,35.52
2022-09-02T17:06:43.032Z,35.13
2022-09-02T17:09:10.864Z,35.04
2022-09-02T17:11:41.484Z,35.41
2022-09-02T17:14:11.112Z,35.72
2022-09-02T17:16:40.454Z,36.13
2022-09-02T17:19:08.695Z,36.05
2022-09-02T17:21:38.002Z,36.48
2022-09-02T17:24:07.602Z,36.70
2022-09-02T17:26:37.199Z,36.91
2022-09-02T17:29:17.301Z,37.44
2022-09-02T17:31:53.802Z,37.58
2022-09-02T17:34:21.648Z,37.79
2022-09-02T17:36:49.211Z,38.34
2022-09-02T17:39:18.489Z,37.94
2022-09-02T17:41:54.401Z,38.29
2022-09-02T17:44:25.182Z,38.69
2022-09-02T17:46:53.332Z,38.90
2022-09-02T17:49:21.540Z,39.07
2022-09-02T17:51:49.624Z,39.17
2022-09-02T17:54:17.212Z,39.52
2022-09-02T17:57:03.614Z,39.74
2022-09-02T17:59:43.283Z,40.21
2022-09-02T18:02:47.919Z,40.37
2022-09-02T18:05:29.001Z,40.38
2022-09-02T18:08:01.562Z,40.31
2022-09-02T18:10:34.428Z,40.45
2022-09-02T18:13:05.777Z,41.62
2022-09-02T18:15:41.862Z,41.09
2022-09-02T18:18:11.864Z,41.14
2022-09-02T18:20:43.469Z,40.84
2022-09-02T18:23:32.819Z,41.13
2022-09-02T18:26:11.668Z,40.57
2022-09-02T18:28:50.111Z,40.92
2022-09-02T18:31:35.922Z,40.02
2022-09-02T18:34:17.992Z,40.62
2022-09-02T18:36:55.593Z,40.29
2022-09-02T18:39:43.377Z,40.27
2022-09-02T18:42:23.910Z,40.37
2022-09-02T18:45:03.581Z,40.30
2022-09-02T18:47:38.007Z,40.45
2022-09-02T18:50:07.400Z,40.31
2022-09-02T18:52:37.310Z,40.55
2022-09-02T18:55:10.862Z,41.02
2022-09-02T18:57:45.123Z,41.12
2022-09-02T19:00:16.041Z,41.06
2022-09-02T19:02:50.075Z,40.80
2022-09-02T19:05:20.555Z,40.96
2022-09-02T19:08:12.242Z,41.96
2022-09-02T19:10:40.629Z,41.07
2022-09-02T19:13:08.382Z,40.97
2022-09-02T19:15:36.065Z,41.07
2022-09-02T19:18:06.270Z,41.88
2022-09-02T19:20:35.368Z,42.00
2022-09-02T19:23:06.889Z,41.65
2022-09-02T19:25:36.491Z,41.78
2022-09-02T19:28:06.152Z,41.11
2022-09-02T19:30:37.305Z,40.84
2022-09-02T19:33:09.164Z,41.20
2022-09-02T19:35:38.228Z,41.15
2022-09-02T19:38:06.014Z,41.04
2022-09-02T19:40:36.399Z,41.57
2022-09-02T19:43:07.493Z,40.98
2022-09-02T19:45:46.717Z,41.86
2022-09-02T19:48:16.565Z,43.42
2022-09-02T19:50:46.013Z,41.82
2022-09-02T19:53:19.155Z,41.79
2022-09-02T19:55:46.919Z,41.64
2022-09-02T19:58:14.627Z,41.56
2022-09-02T20:00:43.350Z,41.42
2022-09-02T20:03:11.380Z,43.71
2022-09-02T20:05:41.050Z,43.82
2022-09-02T20:08:09.724Z,42.88
2022-09-02T20:10:37.535Z,42.27
2022-09-02T20:13:05.594Z,43.28
2022-09-02T20:15:37.552Z,42.34
2022-09-02T20:18:11.529Z,41.79
2022-09-02T20:20:44.315Z,44.25
2022-09-02T20:23:17.035Z,42.66
2022-09-02T20:25:57.407Z,42.66
2022-09-02T20:28:26.520Z,42.75
2022-09-02T20:31:05.011Z,43.85
2022-09-02T20:33:41.060Z,43.06
2022-09-02T20:36:18.678Z,42.18
2022-09-02T20:39:18.171Z,42.76
2022-09-02T20:41:59.215Z,42.88
2022-09-02T20:44:43.246Z,43.98
2022-09-02T20:47:37.183Z,42.60
2022-09-02T20:50:22.342Z,44.87
2022-09-02T20:53:06.914Z,42.96
2022-09-02T20:55:41.365Z,42.78
2022-09-02T20:58:18.008Z,42.21
2022-09-02T21:00:54.571Z,42.27
2022-09-02T21:03:25.850Z,42.71
2022-09-02T21:05:58.265Z,43.01
2022-09-02T21:08:31.004Z,42.74
2022-09-02T21:11:01.233Z,42.70
2022-09-02T21:13:41.557Z,42.93
2022-09-02T21:16:19.497Z,43.34
2022-09-02T21:18:53.313Z,43.20
2022-09-02T21:21:27.569Z,43.30
2022-09-02T21:24:02.453Z,43.21
2022-09-02T21:26:39.996Z,42.80
2022-09-02T21:29:16.227Z,43.77
2022-09-02T21:31:49.627Z,43.08
2022-09-02T21:34:24.402Z,44.22
2022-09-02T21:36:55.405Z,43.17
2022-09-02T21:39:28.229Z,43.37
2022-09-02T21:42:07.444Z,43.44
2022-09-02T21:44:45.720Z,43.72
2022-09-02T21:47:22.995Z,43.55
2022-09-02T21:50:04.349Z,44.09
2022-09-02T21:52:45.632Z,43.41
2022-09-02T21:55:26.604Z,42.81
2022-09-02T21:58:09.843Z,43.60
2022-09-02T22:00:39.123Z,43.87
2022-09-02T22:03:16.335Z,43.93
2022-09-02T22:05:53.279Z,43.67
2022-09-02T22:08:28.905Z,43.50
2022-09-02T22:11:09.557Z,43.68
2022-09-02T22:13:41.876Z,43.58
2022-09-02T22:16:16.254Z,43.56
2022-09-02T22:18:55.330Z,43.32
2022-09-02T22:21:39.673Z,43.58
2022-09-02T22:24:08.280Z,43.56
2022-09-02T22:26:41.065Z,43.68
2022-09-02T22:29:17.298Z,43.84
2022-09-02T22:31:48.158Z,43.86
2022-09-02T22:34:18.620Z,43.75
2022-09-02T22:36:56.348Z,44.02
2022-09-02T22:39:33.747Z,43.89
2022-09-02T22:42:09.937Z,44.10
2022-09-02T22:45:00.657Z,44.26
2022-09-02T22:47:48.238Z,44.25
2022-09-02T22:50:39.404Z,44.61
2022-09-02T22:53:06.938Z,44.66
2022-09-02T22:55:47.006Z,44.83
2022-09-02T22:58:37.357Z,44.92
2022-09-02T23:01:15.256Z,44.93
2022-09-02T23:03:51.334Z,45.07
2022-09-02T23:24:05.719Z,45.60
2022-09-02T23:26:41.031Z,45.80
2022-09-02T23:29:18.821Z,45.69
2022-09-02T23:32:00.430Z,46.00
2022-09-02T23:34:44.123Z,46.26
2022-09-02T23:37:21.041Z,45.57
2022-09-02T23:39:59.544Z,45.78
2022-09-02T23:42:27.833Z,45.90
2022-09-02T23:45:08.283Z,45.95
2022-09-02T23:47:50.818Z,45.79
2022-09-02T23:50:27.578Z,45.75
2022-09-02T23:53:06.670Z,45.71
2022-09-02T23:55:48.728Z,45.94
2022-09-02T23:58:33.871Z,46.12
